createdAt,value
2022-10-18T00:00:16.361Z,588.47
2022-10-18T00:02:43.163Z,550.65
2022-10-18T00:05:09.940Z,506.27
2022-10-18T00:07:36.542Z,651.40
2022-10-18T00:10:04.499Z,704.08
2022-10-18T00:12:34.857Z,678.00
2022-10-18T00:15:02.771Z,638.78
2022-10-18T00:17:29.708Z,656.03
2022-10-18T00:19:56.588Z,673.05
2022-10-18T00:22:23.190Z,712.42
2022-10-18T00:24:49.886Z,677.95
2022-10-18T00:27:16.761Z,683.08
2022-10-18T00:29:43.444Z,678.70
2022-10-18T00:32:12.079Z,566.75
2022-10-18T00:34:40.381Z,558.03
2022-10-18T00:37:07.319Z,616.55
2022-10-18T00:39:34.212Z,521.10
2022-10-18T00:42:01.335Z,509.85
2022-10-18T00:44:27.965Z,468.88
2022-10-18T00:47:01.629Z,502.98
2022-10-18T00:49:35.530Z,596.47
2022-10-18T00:52:11.075Z,495.30
2022-10-18T00:54:40.488Z,495.08
2022-10-18T00:57:08.029Z,516.85
2022-10-18T00:59:35.381Z,520.72
2022-10-18T01:02:02.355Z,526.13
2022-10-18T01:04:29.168Z,506.90
2022-10-18T01:07:04.202Z,509.30
2022-10-18T01:10:08.164Z,524.83
2022-10-18T01:12:56.302Z,514.15
2022-10-18T01:15:28.357Z,554.85
2022-10-18T01:18:07.071Z,462.77
2022-10-18T01:20:51.710Z,382.48
2022-10-18T01:23:41.230Z,407.00
2022-10-18T01:26:45.276Z,427.95
2022-10-18T01:29:53.460Z,387.63
2022-10-18T01:32:24.468Z,425.35
2022-10-18T01:34:56.099Z,410.48
2022-10-18T01:37:23.228Z,388.60
2022-10-18T01:39:54.461Z,377.33
2022-10-18T01:42:22.088Z,406.33
2022-10-18T01:44:50.823Z,384.58
2022-10-18T01:47:19.665Z,387.10
2022-10-18T01:49:46.724Z,398.90
2022-10-18T01:52:14.916Z,404.90
2022-10-18T01:54:45.255Z,447.05
2022-10-18T01:58:04.983Z,399.73
2022-10-18T02:00:42.462Z,515.33
2022-10-18T02:03:23.535Z,459.95
2022-10-18T02:05:59.247Z,447.83
2022-10-18T02:08:31.131Z,453.85
2022-10-18T02:11:04.760Z,428.40
2022-10-18T02:13:57.228Z,430.23
2022-10-18T02:16:33.108Z,400.40
2022-10-18T02:19:08.693Z,408.65
2022-10-18T02:21:38.123Z,379.55
2022-10-18T02:24:06.551Z,429.35
2022-10-18T02:26:33.295Z,417.95
2022-10-18T02:29:00.157Z,365.90
2022-10-18T02:31:49.104Z,371.02
2022-10-18T02:34:23.248Z,401.52
2022-10-18T02:39:29.569Z,477.13
2022-10-18T02:41:57.672Z,423.27
2022-10-18T02:44:24.844Z,391.92
2022-10-18T02:46:51.521Z,388.33
2022-10-18T02:49:18.584Z,383.60
2022-10-18T02:51:45.480Z,377.38
2022-10-18T02:54:12.098Z,393.27
2022-10-18T02:56:38.832Z,396.70
2022-10-18T02:59:07.449Z,389.58
2022-10-18T03:01:37.230Z,369.42
2022-10-18T03:04:05.252Z,365.00
2022-10-18T03:06:32.813Z,373.05
2022-10-18T03:08:59.596Z,374.30
2022-10-18T03:11:26.257Z,372.15
2022-10-18T03:13:53.011Z,378.95
2022-10-18T03:16:19.778Z,382.33
2022-10-18T03:18:46.808Z,384.30
2022-10-18T03:21:13.636Z,385.50
2022-10-18T03:23:42.311Z,389.50
2022-10-18T03:26:10.043Z,365.98
2022-10-18T03:28:36.811Z,391.42
2022-10-18T03:31:04.692Z,398.63
2022-10-18T03:33:32.688Z,382.48
2022-10-18T03:35:59.692Z,392.80
2022-10-18T03:38:26.620Z,441.60
2022-10-18T03:40:53.204Z,512.25
2022-10-18T03:43:19.978Z,550.75
2022-10-18T03:45:46.631Z,548.10
2022-10-18T03:48:13.272Z,567.75
2022-10-18T03:50:40.062Z,528.10
2022-10-18T03:53:06.850Z,526.55
2022-10-18T03:55:33.475Z,567.95
2022-10-18T03:58:00.275Z,630.25
2022-10-18T04:00:26.912Z,622.45
2022-10-18T04:02:55.871Z,625.80
2022-10-18T04:05:28.156Z,592.08
2022-10-18T04:07:55.285Z,526.28
2022-10-18T04:10:22.581Z,485.17
2022-10-18T04:12:49.386Z,528.58
2022-10-18T04:15:16.533Z,517.97
2022-10-18T04:17:43.185Z,535.95
2022-10-18T04:20:10.181Z,525.03
2022-10-18T04:22:36.877Z,495.75
2022-10-18T04:25:04.637Z,442.73
2022-10-18T04:27:31.743Z,504.98
2022-10-18T04:29:58.823Z,526.67
2022-10-18T04:32:27.864Z,503.85
2022-10-18T04:34:54.710Z,557.50
2022-10-18T04:37:21.456Z,578.67
2022-10-18T04:39:51.245Z,601.53
2022-10-18T04:42:21.073Z,613.97
2022-10-18T04:44:48.405Z,417.55
2022-10-18T04:47:15.537Z,375.90
2022-10-18T04:49:42.327Z,397.77
2022-10-18T04:52:09.468Z,437.85
2022-10-18T04:54:36.448Z,456.63
2022-10-18T04:57:03.334Z,442.55
2022-10-18T04:59:29.987Z,398.75
2022-10-18T05:01:56.730Z,416.25
2022-10-18T05:04:23.633Z,374.95
2022-10-18T05:06:50.666Z,372.92
2022-10-18T05:20:00.173Z,306.90
2022-10-18T05:22:26.935Z,413.58
2022-10-18T05:24:53.490Z,418.90
2022-10-18T05:27:20.447Z,255.65
2022-10-18T05:29:47.046Z,306.52
2022-10-18T05:32:13.832Z,340.10
2022-10-18T05:34:40.627Z,361.13
2022-10-18T05:37:07.477Z,382.85
2022-10-18T05:39:34.182Z,433.33
2022-10-18T05:42:01.185Z,438.73
2022-10-18T05:44:27.896Z,412.00
2022-10-18T05:46:54.654Z,462.75
2022-10-18T05:49:21.477Z,460.35
2022-10-18T05:51:48.158Z,440.30
2022-10-18T05:54:15.384Z,472.50
2022-10-18T05:56:42.389Z,426.77
2022-10-18T05:59:12.377Z,394.90
2022-10-18T06:01:40.599Z,423.17
2022-10-18T06:04:07.873Z,390.25
2022-10-18T06:06:34.498Z,359.63
2022-10-18T06:09:03.301Z,336.35
2022-10-18T06:11:31.155Z,330.67
2022-10-18T06:13:58.135Z,318.73
2022-10-18T06:16:31.295Z,308.70
2022-10-18T06:21:27.041Z,395.02
2022-10-18T06:23:56.141Z,358.80
2022-10-18T06:26:23.306Z,341.90
2022-10-18T06:28:50.352Z,355.38
2022-10-18T06:31:17.528Z,389.45
2022-10-18T06:33:46.213Z,423.75
2022-10-18T06:36:18.532Z,466.95
2022-10-18T06:38:45.626Z,511.15
2022-10-18T06:41:12.383Z,579.92
2022-10-18T06:43:39.503Z,555.45
2022-10-18T06:46:08.220Z,586.25
2022-10-18T06:48:39.225Z,569.60
2022-10-18T06:51:07.449Z,522.60
2022-10-18T06:53:43.919Z,459.35
2022-10-18T08:34:49.689Z,426.73
2022-10-18T08:37:18.567Z,331.42
2022-10-18T08:39:45.458Z,299.50
2022-10-18T08:42:27.760Z,501.48
2022-10-18T08:44:55.595Z,397.20
2022-10-18T08:47:43.821Z,445.73
2022-10-18T08:51:43.690Z,234.55
2022-10-18T08:54:25.666Z,358.45
2022-10-18T08:57:05.200Z,506.60
2022-10-18T08:59:39.629Z,530.47
2022-10-18T09:04:48.198Z,410.20
2022-10-18T09:07:36.912Z,318.02
2022-10-18T09:10:26.409Z,279.40
2022-10-18T09:13:11.848Z,299.48
2022-10-18T09:16:06.351Z,406.20
2022-10-18T09:18:48.947Z,260.77
2022-10-18T09:21:34.745Z,434.02
2022-10-18T09:24:04.272Z,342.98
2022-10-18T09:26:40.942Z,465.02
2022-10-18T09:29:29.423Z,555.72
2022-10-18T09:32:14.543Z,432.13
2022-10-18T09:34:59.055Z,607.53
2022-10-18T09:40:03.122Z,621.55
2022-10-18T09:42:36.311Z,567.20
2022-10-18T09:45:32.088Z,471.85
2022-10-18T09:48:08.600Z,413.13
2022-10-18T09:50:45.319Z,377.17
2022-10-18T09:53:19.282Z,498.10
2022-10-18T09:55:59.405Z,318.40
2022-10-18T09:58:30.887Z,274.98
2022-10-18T10:00:58.115Z,268.65
2022-10-18T10:03:25.842Z,344.88
2022-10-18T10:06:17.601Z,320.67
2022-10-18T10:08:48.642Z,309.60
2022-10-18T10:11:45.674Z,341.92
2022-10-18T10:14:24.211Z,369.17
2022-10-18T10:16:57.515Z,379.27
2022-10-18T10:19:35.814Z,417.40
2022-10-18T10:22:34.806Z,394.95
2022-10-18T10:25:02.272Z,335.58
2022-10-18T10:27:43.573Z,392.25
2022-10-18T10:30:39.775Z,342.33
2022-10-18T10:33:06.761Z,382.88
2022-10-18T10:38:28.308Z,356.05
2022-10-18T10:40:55.908Z,429.95
2022-10-18T10:43:38.284Z,407.90
2022-10-18T10:46:13.198Z,406.23
2022-10-18T10:49:15.330Z,507.52
2022-10-18T10:51:43.818Z,531.00
2022-10-18T10:54:24.401Z,459.25
2022-10-18T10:57:12.782Z,483.67
2022-10-18T10:59:48.222Z,607.90
2022-10-18T11:02:17.773Z,460.20
2022-10-18T11:04:52.880Z,595.47
2022-10-18T11:07:43.246Z,574.08
2022-10-18T11:10:09.963Z,614.45
2022-10-18T11:12:43.434Z,549.15
2022-10-18T11:15:10.559Z,573.15
2022-10-18T11:18:15.009Z,623.65
2022-10-18T11:21:02.908Z,602.47
2022-10-18T11:23:32.924Z,684.80
2022-10-18T11:26:06.882Z,659.00
2022-10-18T11:28:36.312Z,596.97
2022-10-18T11:31:20.532Z,617.47
2022-10-18T11:34:18.796Z,651.22
2022-10-18T11:37:27.319Z,700.75
2022-10-18T11:40:07.965Z,769.60
2022-10-18T11:42:48.275Z,681.15
2022-10-18T11:45:52.510Z,672.45
2022-10-18T11:48:43.863Z,663.53
2022-10-18T11:51:55.907Z,647.17
2022-10-18T11:54:45.239Z,620.00
2022-10-18T11:57:42.849Z,566.90
2022-10-18T12:00:19.368Z,461.10
2022-10-18T12:03:14.195Z,646.67
2022-10-18T12:05:44.619Z,509.55
2022-10-18T12:08:26.924Z,637.80
2022-10-18T12:11:06.060Z,597.65
2022-10-18T12:13:48.202Z,541.60
2022-10-18T12:16:16.820Z,550.08
2022-10-18T12:19:01.037Z,619.13
2022-10-18T12:21:32.033Z,617.63
2022-10-18T12:24:16.077Z,581.75
2022-10-18T12:26:43.714Z,559.53
2022-10-18T12:29:38.361Z,610.80
2022-10-18T12:34:51.913Z,325.52
2022-10-18T12:37:32.959Z,447.63
2022-10-18T12:40:11.515Z,417.38
2022-10-18T12:42:52.854Z,413.85
2022-10-18T12:45:26.601Z,327.17
2022-10-18T12:47:54.336Z,390.90
2022-10-18T12:50:44.045Z,386.80
2022-10-18T12:53:12.418Z,406.48
2022-10-18T12:55:44.584Z,285.52
2022-10-18T12:58:14.602Z,304.70
2022-10-18T13:00:41.845Z,380.30
2022-10-18T13:03:16.902Z,289.52
2022-10-18T13:05:55.568Z,247.88
2022-10-18T13:08:42.366Z,242.95
2022-10-18T13:11:09.062Z,232.13
2022-10-18T13:14:20.692Z,267.63
2022-10-18T13:17:11.378Z,294.75
2022-10-18T13:20:07.759Z,282.50
2022-10-18T13:23:17.289Z,231.18
2022-10-18T13:25:54.553Z,298.40
2022-10-18T13:28:47.448Z,217.50
2022-10-18T13:31:14.274Z,209.20
2022-10-18T13:33:42.175Z,192.77
2022-10-18T13:36:22.700Z,203.15
2022-10-18T13:38:57.675Z,432.92
2022-10-18T13:41:32.785Z,351.10
2022-10-18T13:44:05.242Z,210.15
2022-10-18T13:46:34.879Z,294.45
2022-10-18T13:49:34.627Z,268.08
2022-10-18T13:52:07.044Z,380.77
2022-10-18T13:54:45.548Z,301.63
2022-10-18T13:57:24.467Z,268.77
2022-10-18T14:00:15.692Z,203.50
2022-10-18T14:02:57.755Z,231.68
2022-10-18T14:06:00.222Z,198.48
2022-10-18T14:08:45.903Z,194.85
2022-10-18T14:11:53.590Z,222.65
2022-10-18T14:14:42.690Z,279.60
2022-10-18T14:17:32.504Z,321.42
2022-10-18T14:20:20.645Z,367.95
2022-10-18T14:23:05.547Z,439.73
2022-10-18T14:25:35.949Z,389.10
2022-10-18T14:28:36.247Z,427.58
2022-10-18T14:31:16.184Z,370.67
2022-10-18T14:33:58.386Z,474.05
2022-10-18T14:36:29.612Z,470.65
2022-10-18T14:38:59.175Z,494.17
2022-10-18T14:41:34.303Z,527.97
2022-10-18T14:44:16.255Z,543.08
2022-10-18T14:46:45.327Z,544.05
2022-10-18T14:49:13.434Z,565.50
2022-10-18T14:51:43.050Z,567.40
2022-10-18T14:54:19.454Z,562.00
2022-10-18T14:56:46.604Z,536.72
2022-10-18T14:59:37.027Z,561.20
2022-10-18T15:02:35.397Z,554.25
2022-10-18T15:05:17.596Z,526.63
2022-10-18T15:07:45.070Z,560.55
2022-10-18T15:10:18.538Z,580.90
2022-10-18T15:13:08.258Z,595.13
2022-10-18T15:15:34.902Z,589.72
2022-10-18T15:18:02.317Z,587.17
2022-10-18T15:20:33.551Z,610.97
2022-10-18T15:23:24.794Z,597.20
2022-10-18T15:25:53.062Z,593.28
2022-10-18T15:28:50.094Z,584.00
2022-10-18T15:31:24.509Z,590.85
2022-10-18T15:33:52.951Z,586.53
2022-10-18T15:36:32.292Z,582.10
2022-10-18T15:39:15.654Z,602.05
2022-10-18T15:41:59.480Z,593.88
2022-10-18T15:44:31.967Z,612.22
2022-10-18T15:47:21.685Z,586.80
2022-10-18T15:49:58.679Z,597.55
2022-10-18T15:52:43.299Z,604.13
2022-10-18T15:59:03.614Z,604.58
2022-10-18T16:01:35.745Z,619.10
2022-10-18T16:04:09.066Z,636.70
2022-10-18T16:06:38.748Z,658.17
2022-10-18T16:09:05.843Z,630.85
2022-10-18T16:11:32.789Z,629.33
2022-10-18T16:14:00.541Z,630.72
2022-10-18T16:16:28.949Z,611.20
2022-10-18T16:18:56.097Z,624.03
2022-10-18T16:21:35.138Z,606.90
2022-10-18T16:24:02.440Z,588.97
2022-10-18T16:26:29.593Z,599.95
2022-10-18T16:28:58.074Z,591.88
2022-10-18T16:31:31.354Z,627.55
2022-10-18T16:33:59.021Z,577.15
2022-10-18T16:36:29.106Z,542.60
2022-10-18T16:38:57.302Z,554.60
2022-10-18T16:41:23.986Z,572.13
2022-10-18T16:43:51.335Z,529.28
2022-10-18T16:46:21.248Z,450.40
2022-10-18T16:48:49.831Z,528.05
2022-10-18T16:51:17.430Z,518.63
2022-10-18T16:53:44.498Z,463.95
2022-10-18T16:56:16.009Z,417.77
2022-10-18T16:58:43.032Z,394.88
2022-10-18T17:01:18.343Z,382.73
2022-10-18T17:03:45.704Z,386.25
2022-10-18T17:06:18.312Z,407.67
2022-10-18T17:08:45.548Z,377.83
2022-10-18T17:11:14.284Z,391.00
2022-10-18T17:13:41.074Z,403.25
2022-10-18T17:16:16.184Z,425.85
2022-10-18T17:18:42.962Z,404.08
2022-10-18T17:21:09.615Z,409.52
2022-10-18T17:23:36.215Z,386.33
2022-10-18T17:26:26.206Z,418.00
2022-10-18T17:28:54.854Z,379.77
2022-10-18T17:31:22.750Z,368.75
2022-10-18T17:33:49.491Z,380.55
2022-10-18T17:36:16.482Z,391.15
2022-10-18T17:38:43.176Z,370.17
2022-10-18T17:41:11.570Z,356.10
2022-10-18T17:46:08.427Z,385.73
2022-10-18T17:48:35.190Z,425.85
2022-10-18T17:51:07.717Z,405.27
2022-10-18T17:53:34.939Z,371.55
2022-10-18T17:56:03.183Z,375.20
2022-10-18T17:58:31.586Z,370.85
2022-10-18T18:01:08.541Z,390.60
2022-10-18T18:03:35.259Z,415.98
2022-10-18T18:06:21.672Z,409.77
2022-10-18T18:08:49.769Z,415.17
2022-10-18T18:11:17.429Z,365.05
2022-10-18T18:13:44.105Z,410.63
2022-10-18T18:16:31.230Z,376.65
2022-10-18T18:18:58.920Z,448.48
2022-10-18T18:21:27.207Z,403.90
2022-10-18T18:23:54.036Z,441.10
2022-10-18T18:26:21.462Z,456.63
2022-10-18T18:28:48.958Z,497.73
2022-10-18T18:31:19.416Z,465.27
2022-10-18T18:33:46.437Z,475.98
2022-10-18T18:36:13.481Z,490.00
2022-10-18T18:38:42.963Z,487.90
2022-10-18T18:41:15.456Z,451.75
2022-10-18T18:43:45.453Z,466.38
2022-10-18T18:46:13.592Z,511.60
2022-10-18T18:48:40.952Z,478.38
2022-10-18T18:51:13.586Z,513.67
2022-10-18T18:53:41.608Z,489.05
2022-10-18T18:56:10.960Z,460.75
2022-10-18T18:58:39.094Z,477.55
2022-10-18T19:01:20.052Z,470.92
2022-10-18T19:03:49.494Z,520.80
2022-10-18T19:06:22.148Z,436.70
2022-10-18T19:08:52.845Z,496.70
2022-10-18T19:11:21.489Z,478.25
2022-10-18T19:13:51.301Z,501.88
2022-10-18T19:16:24.550Z,493.65
2022-10-18T19:19:00.005Z,493.75
2022-10-18T19:21:29.978Z,490.73
2022-10-18T19:23:57.922Z,482.23
